createdAt,value
2022-11-01T00:00:24.386Z,10.73
2022-11-01T00:02:50.949Z,11.23
2022-11-01T00:05:17.538Z,11.10
2022-11-01T00:07:44.109Z,8.57
2022-11-01T00:10:11.634Z,8.45
2022-11-01T00:12:38.325Z,7.10
2022-11-01T00:15:05.286Z,6.97
2022-11-01T00:17:31.850Z,6.30
2022-11-01T00:19:58.439Z,7.32
2022-11-01T00:22:26.251Z,6.90
2022-11-01T00:24:54.903Z,6.93
2022-11-01T00:27:21.763Z,7.03
2022-11-01T00:29:48.389Z,7.07
2022-11-01T00:32:15.129Z,6.20
2022-11-01T00:34:41.720Z,7.05
2022-11-01T00:37:08.312Z,6.60
2022-11-01T00:39:35.010Z,6.88
2022-11-01T00:42:01.575Z,6.40
2022-11-01T00:44:28.144Z,6.85
2022-11-01T00:46:54.761Z,6.32
2022-11-01T00:49:21.384Z,6.72
2022-11-01T00:51:47.976Z,5.60
2022-11-01T00:54:14.659Z,5.90
2022-11-01T00:56:41.258Z,6.05
2022-11-01T00:59:07.904Z,6.80
2022-11-01T01:01:34.623Z,7.40
2022-11-01T01:04:01.291Z,6.47
2022-11-01T01:06:27.911Z,6.43
2022-11-01T01:08:55.487Z,5.63
2022-11-01T01:11:22.072Z,5.97
2022-11-01T01:13:48.677Z,5.53
2022-11-01T01:16:15.309Z,6.25
2022-11-01T01:18:41.907Z,7.35
2022-11-01T01:21:08.516Z,6.55
2022-11-01T01:23:35.820Z,5.55
2022-11-01T01:26:10.103Z,5.63
2022-11-01T01:28:41.792Z,4.70
2022-11-01T01:31:12.653Z,4.68
2022-11-01T01:33:39.232Z,4.70
2022-11-01T01:36:06.992Z,5.65
2022-11-01T01:38:33.597Z,7.63
2022-11-01T01:41:20.121Z,5.22
2022-11-01T01:43:46.817Z,6.00
2022-11-01T01:46:13.413Z,4.65
2022-11-01T01:48:41.553Z,4.68
2022-11-01T01:51:11.201Z,5.28
2022-11-01T01:53:40.887Z,5.18
2022-11-01T01:56:16.744Z,5.53
2022-11-01T01:58:48.385Z,6.18
2022-11-01T02:01:15.084Z,6.13
2022-11-01T02:03:41.717Z,5.28
2022-11-01T02:06:12.458Z,5.50
2022-11-01T02:08:43.423Z,5.10
2022-11-01T02:11:10.223Z,6.05
2022-11-01T02:13:37.003Z,5.68
2022-11-01T02:16:43.338Z,5.53
2022-11-01T02:22:26.094Z,4.70
2022-11-01T02:25:32.531Z,5.30
2022-11-01T02:28:38.999Z,5.10
2022-11-01T02:34:12.690Z,5.10
2022-11-01T02:36:58.677Z,4.68
2022-11-01T02:39:30.783Z,4.65
2022-11-01T02:42:03.340Z,5.20
2022-11-01T02:44:33.575Z,6.47
2022-11-01T02:47:01.317Z,5.32
2022-11-01T02:49:49.902Z,5.60
2022-11-01T02:52:19.457Z,5.50
2022-11-01T02:54:50.070Z,5.43
2022-11-01T02:57:36.609Z,6.32
2022-11-01T03:00:24.434Z,6.18
2022-11-01T03:02:54.929Z,5.00
2022-11-01T03:05:46.987Z,4.65
2022-11-01T03:08:16.651Z,5.07
2022-11-01T03:11:19.242Z,5.00
2022-11-01T03:14:08.271Z,4.53
2022-11-01T03:17:11.952Z,4.50
2022-11-01T03:20:01.473Z,4.95
2022-11-01T03:22:40.880Z,4.57
2022-11-01T03:25:44.325Z,4.40
2022-11-01T03:28:33.710Z,4.00
2022-11-01T03:31:05.385Z,3.90
2022-11-01T03:33:32.997Z,4.70
2022-11-01T03:36:03.365Z,4.28
2022-11-01T03:38:32.592Z,5.00
2022-11-01T03:41:01.439Z,4.47
2022-11-01T03:43:28.027Z,3.90
2022-11-01T03:45:55.044Z,4.25
2022-11-01T03:48:21.595Z,4.07
2022-11-01T03:50:50.242Z,4.25
2022-11-01T03:53:16.931Z,4.57
2022-11-01T03:55:43.534Z,4.43
2022-11-01T03:58:10.180Z,4.43
2022-11-01T04:00:39.104Z,4.07
2022-11-01T04:03:06.318Z,4.57
2022-11-01T04:05:33.579Z,4.32
2022-11-01T04:08:00.174Z,4.13
2022-11-01T04:10:27.093Z,3.72
2022-11-01T04:12:53.695Z,4.03
2022-11-01T04:15:40.790Z,4.50
2022-11-01T04:18:33.950Z,4.32
2022-11-01T04:23:29.075Z,6.57
2022-11-01T04:25:55.700Z,5.70
2022-11-01T04:28:23.418Z,4.93
2022-11-01T04:30:50.060Z,4.53
2022-11-01T04:33:16.733Z,4.82
2022-11-01T04:35:43.415Z,4.60
2022-11-01T04:38:11.121Z,4.97
2022-11-01T04:40:37.736Z,4.57
2022-11-01T04:43:04.507Z,4.75
2022-11-01T04:45:31.086Z,5.25
2022-11-01T04:48:02.441Z,5.22
2022-11-01T04:50:29.392Z,4.80
2022-11-01T04:52:57.290Z,4.20
2022-11-01T04:55:23.889Z,5.10
2022-11-01T04:57:50.426Z,5.97
2022-11-01T05:00:17.217Z,5.00
2022-11-01T05:02:43.829Z,4.90
2022-11-01T05:05:10.880Z,4.25
2022-11-01T05:07:37.729Z,6.25
2022-11-01T05:10:04.829Z,4.97
2022-11-01T05:12:31.407Z,4.53
2022-11-01T05:14:57.990Z,5.47
2022-11-01T05:17:24.721Z,5.65
2022-11-01T05:19:51.365Z,5.15
2022-11-01T05:22:18.129Z,4.53
2022-11-01T05:24:45.052Z,5.50
2022-11-01T05:27:11.724Z,5.28
2022-11-01T05:29:38.318Z,4.85
2022-11-01T05:32:04.959Z,4.70
2022-11-01T05:34:31.555Z,5.38
2022-11-01T05:36:58.150Z,4.80
2022-11-01T05:39:24.723Z,5.10
2022-11-01T05:41:51.314Z,3.85
2022-11-01T05:44:17.890Z,4.32
2022-11-01T05:46:44.486Z,4.03
2022-11-01T05:49:11.080Z,3.65
2022-11-01T05:51:39.118Z,4.57
2022-11-01T05:54:05.796Z,4.80
2022-11-01T05:56:32.381Z,3.83
2022-11-01T05:58:58.925Z,4.40
2022-11-01T06:01:25.561Z,4.72
2022-11-01T06:03:52.201Z,4.53
2022-11-01T06:06:18.801Z,3.42
2022-11-01T06:08:45.372Z,4.30
2022-11-01T06:11:12.371Z,4.03
2022-11-01T06:13:38.980Z,4.20
2022-11-01T06:16:06.021Z,4.28
2022-11-01T06:18:35.789Z,4.13
2022-11-01T06:21:02.431Z,3.40
2022-11-01T06:23:29.036Z,4.22
2022-11-01T06:26:03.144Z,3.42
2022-11-01T06:28:29.777Z,4.70
2022-11-01T06:30:59.386Z,4.22
2022-11-01T06:33:25.997Z,3.38
2022-11-01T06:35:52.574Z,4.13
2022-11-01T06:38:19.173Z,5.35
2022-11-01T06:40:46.659Z,3.72
2022-11-01T06:43:13.315Z,3.20
2022-11-01T06:45:39.942Z,3.95
2022-11-01T06:48:06.685Z,3.15
2022-11-01T06:50:33.418Z,4.07
2022-11-01T06:53:00.251Z,3.20
2022-11-01T06:55:27.519Z,3.03
2022-11-01T06:57:58.507Z,3.58
2022-11-01T07:00:25.543Z,3.50
2022-11-01T07:03:08.278Z,3.35
2022-11-01T07:05:37.277Z,2.85
2022-11-01T07:08:06.132Z,4.50
2022-11-01T07:10:32.987Z,4.18
2022-11-01T07:13:00.255Z,3.13
2022-11-01T07:15:27.448Z,2.60
2022-11-01T07:17:56.519Z,3.15
2022-11-01T07:20:23.907Z,3.17
2022-11-01T07:23:06.120Z,3.05
2022-11-01T07:25:33.007Z,4.47
2022-11-01T07:27:59.726Z,3.40
2022-11-01T07:30:26.783Z,3.13
2022-11-01T07:32:57.442Z,3.20
2022-11-01T07:35:24.536Z,3.70
2022-11-01T07:37:51.191Z,3.50
2022-11-01T07:40:18.054Z,2.97
2022-11-01T07:42:45.154Z,3.97
2022-11-01T07:45:13.211Z,3.60
2022-11-01T07:47:40.017Z,3.92
2022-11-01T07:50:07.037Z,2.97
2022-11-01T07:52:33.767Z,3.42
2022-11-01T07:55:00.497Z,3.30
2022-11-01T07:57:27.176Z,4.65
2022-11-01T07:59:53.755Z,4.00
2022-11-01T08:02:20.601Z,3.80
2022-11-01T08:04:47.304Z,4.45
2022-11-01T08:07:13.927Z,3.78
2022-11-01T08:09:42.235Z,4.47
2022-11-01T08:12:08.859Z,5.13
2022-11-01T08:14:35.445Z,5.22
2022-11-01T08:17:02.039Z,5.10
2022-11-01T08:19:28.746Z,5.18
2022-11-01T08:21:59.564Z,5.70
2022-11-01T08:24:26.673Z,5.30
2022-11-01T08:26:53.579Z,4.72
2022-11-01T08:29:20.546Z,5.07
2022-11-01T08:31:47.494Z,4.88
2022-11-01T08:34:16.891Z,4.80
2022-11-01T08:36:43.972Z,4.43
2022-11-01T08:39:10.719Z,6.38
2022-11-01T08:41:37.677Z,4.95
2022-11-01T08:44:04.537Z,4.85
2022-11-01T08:46:31.280Z,5.55
2022-11-01T08:49:00.322Z,5.53
2022-11-01T08:51:27.615Z,6.13
2022-11-01T08:53:56.377Z,4.68
2022-11-01T08:56:24.867Z,5.13
2022-11-01T08:58:52.213Z,5.00
2022-11-01T09:01:19.351Z,4.53
2022-11-01T09:03:46.146Z,5.55
2022-11-01T09:06:13.109Z,4.97
2022-11-01T09:08:39.751Z,5.30
2022-11-01T09:11:06.364Z,4.90
2022-11-01T09:13:33.838Z,4.57
2022-11-01T09:16:04.570Z,5.22
2022-11-01T09:18:31.337Z,5.65
2022-11-01T09:20:57.996Z,4.95
2022-11-01T09:23:24.568Z,5.57
2022-11-01T09:25:51.148Z,5.30
2022-11-01T09:28:17.740Z,5.53
2022-11-01T09:30:50.085Z,6.18
2022-11-01T09:33:27.621Z,5.18
2022-11-01T09:35:59.357Z,6.05
2022-11-01T09:38:26.728Z,5.82
2022-11-01T09:41:17.301Z,5.22
2022-11-01T09:43:43.902Z,5.40
2022-11-01T09:46:12.273Z,4.50
2022-11-01T09:48:39.875Z,5.40
2022-11-01T09:51:10.629Z,4.32
2022-11-01T09:53:37.214Z,5.78
2022-11-01T09:56:12.258Z,6.93
2022-11-01T10:01:41.308Z,5.40
2022-11-01T10:04:33.925Z,3.78
2022-11-01T10:10:24.476Z,4.50
2022-11-01T10:13:17.385Z,5.07
2022-11-01T10:16:08.282Z,4.03
2022-11-01T10:18:42.293Z,3.95
2022-11-01T10:21:12.484Z,4.18
2022-11-01T10:23:45.141Z,3.75
2022-11-01T10:29:08.961Z,3.75
2022-11-01T10:31:37.350Z,4.07
2022-11-01T10:34:16.519Z,4.22
2022-11-01T10:36:44.909Z,3.88
2022-11-01T10:42:21.921Z,3.40
2022-11-01T10:44:55.203Z,3.40
2022-11-01T10:47:23.267Z,3.33
2022-11-01T10:50:22.178Z,2.70
2022-11-01T10:53:00.830Z,3.35
2022-11-01T10:55:45.123Z,2.60
2022-11-01T10:58:37.685Z,2.38
2022-11-01T11:01:07.019Z,3.03
2022-11-01T11:03:33.873Z,2.30
2022-11-01T11:06:04.960Z,2.92
2022-11-01T11:08:31.551Z,2.85
2022-11-01T11:10:59.492Z,3.10
2022-11-01T11:13:26.130Z,2.50
2022-11-01T11:15:54.931Z,2.72
2022-11-01T11:18:27.339Z,3.08
2022-11-01T11:20:56.657Z,2.22
2022-11-01T11:23:23.363Z,2.20
2022-11-01T11:25:50.602Z,2.65
2022-11-01T11:28:23.665Z,2.83
2022-11-01T11:30:50.321Z,2.50
2022-11-01T11:33:17.340Z,2.50
2022-11-01T11:35:53.058Z,3.15
2022-11-01T11:38:19.698Z,2.10
2022-11-01T11:40:46.394Z,2.63
2022-11-01T11:43:27.601Z,2.30
2022-11-01T11:46:15.910Z,2.33
2022-11-01T11:49:07.005Z,2.80
2022-11-01T11:51:37.538Z,2.75
2022-11-01T11:54:26.058Z,2.05
2022-11-01T11:57:06.042Z,2.33
2022-11-01T11:59:32.668Z,2.60
2022-11-01T12:02:02.121Z,2.25
2022-11-01T12:04:39.322Z,2.55
2022-11-01T12:07:11.155Z,3.10
2022-11-01T12:12:18.588Z,2.58
2022-11-01T12:14:45.248Z,1.95
2022-11-01T12:17:34.185Z,2.00
2022-11-01T12:20:18.711Z,2.05
2022-11-01T12:22:49.080Z,2.00
2022-11-01T12:25:20.595Z,1.40
2022-11-01T12:27:52.388Z,1.65
2022-11-01T12:30:21.891Z,1.80
2022-11-01T12:32:58.735Z,1.85
2022-11-01T12:35:31.049Z,1.17
2022-11-01T12:38:29.974Z,1.20
2022-11-01T12:40:59.848Z,1.75
2022-11-01T12:43:31.444Z,1.50
2022-11-01T12:46:15.354Z,2.05
2022-11-01T12:48:44.659Z,5.40
2022-11-01T12:51:16.803Z,1.83
2022-11-01T12:53:55.258Z,2.20
2022-11-01T12:56:21.875Z,2.22
2022-11-01T12:58:48.506Z,2.53
2022-11-01T13:01:40.417Z,1.63
2022-11-01T13:04:31.603Z,2.95
2022-11-01T13:07:22.041Z,1.83
2022-11-01T13:10:14.592Z,2.28
2022-11-01T13:15:32.550Z,2.50
2022-11-01T13:18:04.552Z,2.72
2022-11-01T13:20:53.938Z,2.63
2022-11-01T13:23:31.373Z,2.63
2022-11-01T13:26:04.015Z,2.58
2022-11-01T13:28:53.177Z,2.40
2022-11-01T13:31:44.490Z,2.80
2022-11-01T13:34:22.058Z,2.20
2022-11-01T13:39:55.366Z,2.35
2022-11-01T13:42:28.098Z,2.47
2022-11-01T13:47:54.238Z,2.47
2022-11-01T13:50:57.891Z,2.40
2022-11-01T13:53:30.660Z,3.00
2022-11-01T13:58:28.394Z,3.67
2022-11-01T14:00:56.131Z,2.35
2022-11-01T14:03:26.442Z,3.55
2022-11-01T14:06:11.570Z,2.47
2022-11-01T14:08:39.672Z,2.40
2022-11-01T14:11:06.475Z,3.67
2022-11-01T14:13:36.162Z,2.90
2022-11-01T14:16:19.479Z,2.70
2022-11-01T14:19:09.770Z,3.17
2022-11-01T14:21:53.072Z,3.65
2022-11-01T14:24:23.420Z,2.25
2022-11-01T14:27:11.071Z,2.75
2022-11-01T14:29:37.658Z,2.70
2022-11-01T14:32:04.489Z,2.60
2022-11-01T14:34:32.938Z,3.10
2022-11-01T14:37:06.514Z,2.42
2022-11-01T14:39:37.378Z,1.90
2022-11-01T14:42:04.442Z,2.47
2022-11-01T14:44:33.297Z,2.45
2022-11-01T14:47:01.879Z,2.75
2022-11-01T14:49:43.644Z,2.75
2022-11-01T14:52:26.394Z,3.05
2022-11-01T14:54:58.098Z,2.08
2022-11-01T14:57:29.491Z,1.80
2022-11-01T14:59:56.591Z,2.67
2022-11-01T15:02:24.014Z,2.40
2022-11-01T15:04:52.401Z,1.92
2022-11-01T15:07:27.725Z,2.22
2022-11-01T15:10:13.672Z,2.58
2022-11-01T15:15:23.881Z,2.63
2022-11-01T15:17:53.257Z,1.92
2022-11-01T15:20:19.877Z,2.45
2022-11-01T15:22:46.529Z,2.03
2022-11-01T15:25:19.993Z,1.70
2022-11-01T15:27:46.601Z,2.90
2022-11-01T15:30:21.359Z,2.65
2022-11-01T15:32:53.764Z,2.10
2022-11-01T15:35:23.226Z,2.10
2022-11-01T15:37:50.650Z,2.20
2022-11-01T15:40:36.812Z,2.08
2022-11-01T15:43:04.347Z,1.80
2022-11-01T15:45:32.879Z,2.60
2022-11-01T15:48:08.500Z,2.22
2022-11-01T15:50:36.474Z,3.13
2022-11-01T15:53:04.321Z,2.47
2022-11-01T15:55:33.086Z,2.63
2022-11-01T15:58:06.800Z,2.50
2022-11-01T16:00:51.487Z,2.60
2022-11-01T16:03:28.141Z,2.72
2022-11-01T16:05:59.809Z,2.28
2022-11-01T16:08:30.477Z,2.53
2022-11-01T16:10:57.061Z,3.05
2022-11-01T16:13:23.669Z,3.08
2022-11-01T16:16:07.397Z,3.03
2022-11-01T16:18:35.372Z,5.80
2022-11-01T16:21:21.601Z,1.90
2022-11-01T16:23:58.146Z,3.05
2022-11-01T16:26:24.867Z,3.38
2022-11-01T16:28:53.292Z,3.05
2022-11-01T16:31:22.677Z,2.63
2022-11-01T16:33:49.593Z,2.85
2022-11-01T16:38:55.699Z,3.35
2022-11-01T16:41:24.143Z,2.67
2022-11-01T16:43:59.119Z,2.95
2022-11-01T16:46:27.053Z,2.78
2022-11-01T16:49:01.494Z,3.13
2022-11-01T16:51:30.136Z,2.90
2022-11-01T16:53:57.774Z,3.80
2022-11-01T16:56:36.712Z,3.58
2022-11-01T16:59:08.922Z,2.63
2022-11-01T17:01:36.597Z,3.28
2022-11-01T17:04:03.563Z,3.15
2022-11-01T17:06:34.603Z,2.80
2022-11-01T17:09:06.533Z,3.70
2022-11-01T17:11:33.119Z,4.13
2022-11-01T17:14:00.633Z,3.35
2022-11-01T17:16:27.442Z,2.65
2022-11-01T17:18:55.329Z,2.90
2022-11-01T17:21:22.071Z,2.83
2022-11-01T17:23:48.825Z,3.00
2022-11-01T17:26:16.179Z,3.47
2022-11-01T17:28:45.554Z,3.30
2022-11-01T17:31:16.967Z,3.03
2022-11-01T17:33:43.671Z,3.05
2022-11-01T17:36:13.480Z,2.88
2022-11-01T17:38:40.405Z,3.13
2022-11-01T17:41:07.280Z,3.47
2022-11-01T17:43:33.862Z,2.70
2022-11-01T17:46:00.583Z,3.03
2022-11-01T17:48:27.194Z,4.15
2022-11-01T17:50:57.295Z,3.25
2022-11-01T17:53:23.890Z,3.63
2022-11-01T17:55:55.616Z,3.55
2022-11-01T17:58:22.202Z,3.63
2022-11-01T18:00:48.831Z,3.83
2022-11-01T18:03:15.462Z,3.45
2022-11-01T18:05:42.331Z,3.88
2022-11-01T18:08:17.623Z,3.22
2022-11-01T18:11:06.995Z,3.28
2022-11-01T18:14:13.985Z,2.92
2022-11-01T18:16:46.461Z,3.65
2022-11-01T18:22:28.263Z,2.97
2022-11-01T18:24:58.745Z,3.53
2022-11-01T18:27:40.393Z,3.10
2022-11-01T18:30:13.826Z,3.42
2022-11-01T18:32:43.010Z,3.28
2022-11-01T18:35:18.538Z,4.15
2022-11-01T18:37:49.334Z,4.25
2022-11-01T18:40:23.199Z,3.00
2022-11-01T18:42:51.313Z,3.85
2022-11-01T18:45:28.720Z,3.75
2022-11-01T18:48:00.364Z,4.22
2022-11-01T18:50:28.251Z,3.45
2022-11-01T18:53:01.390Z,4.65
2022-11-01T18:55:32.620Z,4.78
2022-11-01T18:58:03.091Z,4.15
2022-11-01T19:00:29.827Z,4.55
2022-11-01T19:03:00.187Z,5.03
2022-11-01T19:05:27.043Z,4.10
2022-11-01T19:08:11.001Z,4.10
2022-11-01T19:10:39.300Z,4.65
2022-11-01T19:13:09.765Z,4.05
2022-11-01T19:15:36.346Z,4.30
2022-11-01T19:18:11.859Z,4.32
2022-11-01T19:20:44.943Z,4.60
2022-11-01T19:23:15.029Z,3.67
2022-11-01T19:25:43.497Z,3.75
2022-11-01T19:28:14.703Z,4.90
2022-11-01T19:30:42.330Z,4.60
2022-11-01T19:36:23.854Z,5.22
2022-11-01T19:38:50.765Z,4.65
2022-11-01T19:41:20.422Z,3.95
2022-11-01T19:43:47.078Z,4.53
2022-11-01T19:46:16.417Z,5.53
2022-11-01T19:48:43.047Z,5.90
2022-11-01T19:51:14.247Z,6.25
2022-11-01T19:53:41.067Z,5.53
2022-11-01T19:56:09.999Z,5.30
2022-11-01T19:58:46.678Z,5.70
2022-11-01T20:01:36.411Z,6.35
2022-11-01T20:04:27.762Z,5.50
2022-11-01T20:07:00.898Z,5.05
2022-11-01T20:11:54.800Z,5.38
2022-11-01T20:14:22.110Z,6.20
2022-11-01T20:16:48.755Z,5.75
2022-11-01T20:19:17.635Z,6.22
2022-11-01T20:21:44.959Z,7.03
2022-11-01T20:24:11.686Z,6.13
2022-11-01T20:26:38.345Z,6.63
2022-11-01T20:29:04.927Z,5.50
2022-11-01T20:31:32.028Z,5.43
2022-11-01T20:33:59.922Z,5.13
2022-11-01T20:36:27.278Z,5.65
2022-11-01T20:38:54.060Z,5.57
2022-11-01T20:41:20.898Z,5.32
2022-11-01T20:43:47.481Z,5.70
2022-11-01T20:46:14.445Z,5.50
2022-11-01T20:48:41.012Z,5.07
2022-11-01T20:51:07.631Z,6.10
2022-11-01T20:53:34.296Z,4.97
2022-11-01T20:56:01.838Z,4.32
2022-11-01T20:58:28.433Z,4.85
2022-11-01T21:00:55.755Z,5.80
2022-11-01T21:03:23.797Z,5.70
2022-11-01T21:05:50.920Z,5.32
2022-11-01T21:08:25.958Z,6.28
2022-11-01T21:10:59.383Z,4.78
2022-11-01T21:13:28.944Z,4.63
2022-11-01T21:15:57.331Z,4.78
2022-11-01T21:18:31.707Z,5.72
2022-11-01T21:20:59.029Z,5.13
2022-11-01T21:28:53.240Z,5.65
2022-11-01T21:31:30.198Z,5.15
2022-11-01T21:33:58.810Z,5.43
2022-11-01T21:36:29.241Z,5.10
2022-11-01T21:39:03.571Z,5.38
2022-11-01T21:41:46.268Z,4.55
2022-11-01T21:44:39.517Z,4.90
2022-11-01T21:47:25.151Z,4.45
2022-11-01T21:49:51.760Z,5.15
2022-11-01T21:52:19.539Z,4.50
2022-11-01T21:54:46.384Z,6.10
2022-11-01T21:57:13.429Z,5.13
2022-11-01T21:59:40.298Z,4.75
2022-11-01T22:02:07.830Z,4.90
2022-11-01T22:04:34.534Z,4.35
2022-11-01T22:07:03.754Z,4.47
2022-11-01T22:09:30.914Z,4.75
2022-11-01T22:11:57.562Z,6.80
2022-11-01T22:14:24.318Z,4.63
2022-11-01T22:16:51.165Z,4.60
2022-11-01T22:19:17.804Z,4.82
2022-11-01T22:24:11.146Z,4.72
2022-11-01T22:26:37.776Z,4.30
2022-11-01T22:29:04.528Z,3.97
2022-11-01T22:31:31.254Z,4.45
2022-11-01T22:33:57.881Z,4.57
2022-11-01T22:36:29.067Z,5.72
2022-11-01T22:38:56.792Z,5.82
2022-11-01T22:41:33.516Z,5.25
2022-11-01T22:44:04.978Z,4.78
2022-11-01T22:46:57.948Z,4.82
2022-11-01T22:49:30.778Z,4.38
2022-11-01T22:54:41.884Z,3.67
2022-11-01T22:57:14.158Z,4.68
2022-11-01T22:59:44.744Z,3.85
2022-11-01T23:02:31.915Z,4.43
2022-11-01T23:07:39.787Z,4.38
2022-11-01T23:10:27.580Z,4.18
2022-11-01T23:13:18.590Z,4.65
2022-11-01T23:15:45.238Z,5.55
2022-11-01T23:18:18.214Z,6.25
2022-11-01T23:20:46.310Z,5.82
2022-11-01T23:23:18.285Z,5.97
2022-11-01T23:25:45.073Z,6.45
2022-11-01T23:28:12.022Z,6.15
2022-11-01T23:30:38.886Z,6.00
2022-11-01T23:33:08.550Z,6.45
2022-11-01T23:35:35.504Z,6.18
2022-11-01T23:38:02.157Z,6.18
2022-11-01T23:40:32.095Z,5.78
2022-11-01T23:42:58.716Z,6.22
2022-11-01T23:45:29.936Z,5.70
2022-11-01T23:47:56.791Z,5.45
2022-11-01T23:50:30.240Z,5.40
2022-11-01T23:53:02.264Z,5.80
2022-11-01T23:55:39.195Z,6.03
2022-11-01T23:58:07.436Z,4.63
